sensor_id;sensor_type;location;lat;lon;timestamp;temperature;humidity
6841;DHT22;3458;53.678;14.080;2024-02-23T00:00:00;10.20;99.90
6841;DHT22;3458;53.678;14.080;2024-02-23T00:02:26;10.30;99.90
6841;DHT22;3458;53.678;14.080;2024-02-23T00:04:52;10.20;99.90
6841;DHT22;3458;53.678;14.080;2024-02-23T00:07:18;10.20;99.90
6841;DHT22;3458;53.678;14.080;2024-02-23T00:09:43;10.30;99.90
6841;DHT22;3458;53.678;14.080;2024-02-23T00:12:08;10.30;99.90
6841;DHT22;3458;53.678;14.080;2024-02-23T00:14:34;10.30;99.90
6841;DHT22;3458;53.678;14.080;2024-02-23T00:17:03;10.30;99.90
6841;DHT22;3458;53.678;14.080;2024-02-23T00:19:30;10.30;99.90
6841;DHT22;3458;53.678;14.080;2024-02-23T00:21:56;10.30;99.90
6841;DHT22;3458;53.678;14.080;2024-02-23T00:24:22;10.30;99.90
6841;DHT22;3458;53.678;14.080;2024-02-23T00:26:48;10.40;99.90
6841;DHT22;3458;53.678;14.080;2024-02-23T00:29:14;10.40;99.90
6841;DHT22;3458;53.678;14.080;2024-02-23T00:31:40;10.40;99.90
6841;DHT22;3458;53.678;14.080;2024-02-23T00:34:07;10.50;99.90
6841;DHT22;3458;53.678;14.080;2024-02-23T00:36:37;10.50;99.90
6841;DHT22;3458;53.678;14.080;2024-02-23T00:39:03;10.50;99.90
6841;DHT22;3458;53.678;14.080;2024-02-23T00:41:28;10.50;99.90
6841;DHT22;3458;53.678;14.080;2024-02-23T00:43:53;10.50;99.90
6841;DHT22;3458;53.678;14.080;2024-02-23T00:46:19;10.60;99.90
6841;DHT22;3458;53.678;14.080;2024-02-23T00:48:44;10.50;99.90
6841;DHT22;3458;53.678;14.080;2024-02-23T00:51:10;10.50;99.90
6841;DHT22;3458;53.678;14.080;2024-02-23T00:53:35;10.50;99.90
6841;DHT22;3458;53.678;14.080;2024-02-23T00:56:01;10.50;99.90
6841;DHT22;3458;53.678;14.080;2024-02-23T00:58:27;10.50;99.90
6841;DHT22;3458;53.678;14.080;2024-02-23T01:00:52;10.50;99.90
6841;DHT22;3458;53.678;14.080;2024-02-23T01:03:18;10.50;99.90
6841;DHT22;3458;53.678;14.080;2024-02-23T01:05:43;10.50;99.90
6841;DHT22;3458;53.678;14.080;2024-02-23T01:08:09;10.50;99.90
6841;DHT22;3458;53.678;14.080;2024-02-23T01:10:34;10.50;99.90
6841;DHT22;3458;53.678;14.080;2024-02-23T01:13:00;10.50;99.90
6841;DHT22;3458;53.678;14.080;2024-02-23T01:15:26;10.50;99.90
6841;DHT22;3458;53.678;14.080;2024-02-23T01:17:51;10.50;99.90
6841;DHT22;3458;53.678;14.080;2024-02-23T01:20:17;10.50;99.90
6841;DHT22;3458;53.678;14.080;2024-02-23T01:22:43;10.50;99.90
6841;DHT22;3458;53.678;14.080;2024-02-23T01:25:08;10.50;99.90
6841;DHT22;3458;53.678;14.080;2024-02-23T01:27:34;10.50;99.90
6841;DHT22;3458;53.678;14.080;2024-02-23T01:29:59;10.50;99.90
6841;DHT22;3458;53.678;14.080;2024-02-23T01:32:25;10.50;99.90
6841;DHT22;3458;53.678;14.080;2024-02-23T01:34:50;10.50;99.90
6841;DHT22;3458;53.678;14.080;2024-02-23T01:37:16;10.50;99.90
6841;DHT22;3458;53.678;14.080;2024-02-23T01:39:42;10.50;99.90
6841;DHT22;3458;53.678;14.080;2024-02-23T01:42:08;10.50;99.90
6841;DHT22;3458;53.678;14.080;2024-02-23T01:44:33;10.50;99.90
6841;DHT22;3458;53.678;14.080;2024-02-23T01:46:59;10.50;99.90
6841;DHT22;3458;53.678;14.080;2024-02-23T01:49:25;10.50;99.90
6841;DHT22;3458;53.678;14.080;2024-02-23T01:51:56;10.50;99.90
6841;DHT22;3458;53.678;14.080;2024-02-23T01:54:22;10.50;99.90
6841;DHT22;3458;53.678;14.080;2024-02-23T01:56:48;10.60;99.90
6841;DHT22;3458;53.678;14.080;2024-02-23T01:59:13;10.60;99.90
6841;DHT22;3458;53.678;14.080;2024-02-23T02:01:40;10.60;99.90
6841;DHT22;3458;53.678;14.080;2024-02-23T02:04:07;10.60;99.90
6841;DHT22;3458;53.678;14.080;2024-02-23T02:06:33;10.70;99.90
6841;DHT22;3458;53.678;14.080;2024-02-23T02:08:58;10.60;99.90
6841;DHT22;3458;53.678;14.080;2024-02-23T02:11:24;10.70;99.90
6841;DHT22;3458;53.678;14.080;2024-02-23T02:13:49;10.70;99.90
6841;DHT22;3458;53.678;14.080;2024-02-23T02:16:15;10.70;99.90
6841;DHT22;3458;53.678;14.080;2024-02-23T02:18:40;10.70;99.90
6841;DHT22;3458;53.678;14.080;2024-02-23T02:21:06;10.70;99.90
6841;DHT22;3458;53.678;14.080;2024-02-23T02:23:32;10.70;99.90
6841;DHT22;3458;53.678;14.080;2024-02-23T02:25:58;10.70;99.90
6841;DHT22;3458;53.678;14.080;2024-02-23T02:28:24;10.70;99.90
6841;DHT22;3458;53.678;14.080;2024-02-23T02:30:51;10.70;99.90
6841;DHT22;3458;53.678;14.080;2024-02-23T02:33:18;10.80;99.90
6841;DHT22;3458;53.678;14.080;2024-02-23T02:35:43;10.90;99.90
6841;DHT22;3458;53.678;14.080;2024-02-23T02:38:10;10.80;99.90
6841;DHT22;3458;53.678;14.080;2024-02-23T02:40:36;10.80;99.90
6841;DHT22;3458;53.678;14.080;2024-02-23T02:43:01;10.80;99.90
6841;DHT22;3458;53.678;14.080;2024-02-23T02:45:27;10.80;99.90
6841;DHT22;3458;53.678;14.080;2024-02-23T02:47:52;10.90;99.90
6841;DHT22;3458;53.678;14.080;2024-02-23T02:50:18;10.90;99.90
6841;DHT22;3458;53.678;14.080;2024-02-23T02:52:44;10.90;99.90
6841;DHT22;3458;53.678;14.080;2024-02-23T02:55:09;10.80;99.90
6841;DHT22;3458;53.678;14.080;2024-02-23T02:57:34;10.70;99.90
6841;DHT22;3458;53.678;14.080;2024-02-23T03:00:04;10.60;99.90
6841;DHT22;3458;53.678;14.080;2024-02-23T03:02:37;10.60;99.90
6841;DHT22;3458;53.678;14.080;2024-02-23T03:05:02;10.60;99.90
6841;DHT22;3458;53.678;14.080;2024-02-23T03:07:28;10.60;99.90
6841;DHT22;3458;53.678;14.080;2024-02-23T03:09:53;10.50;99.90
6841;DHT22;3458;53.678;14.080;2024-02-23T03:12:19;10.50;99.90
6841;DHT22;3458;53.678;14.080;2024-02-23T03:14:45;10.50;99.90
6841;DHT22;3458;53.678;14.080;2024-02-23T03:17:10;10.40;99.90
6841;DHT22;3458;53.678;14.080;2024-02-23T03:19:36;10.40;99.90
6841;DHT22;3458;53.678;14.080;2024-02-23T03:22:02;10.30;99.90
6841;DHT22;3458;53.678;14.080;2024-02-23T03:24:28;10.20;99.90
6841;DHT22;3458;53.678;14.080;2024-02-23T03:26:53;10.20;99.90
6841;DHT22;3458;53.678;14.080;2024-02-23T03:29:19;10.20;99.90
6841;DHT22;3458;53.678;14.080;2024-02-23T03:31:45;10.20;99.90
6841;DHT22;3458;53.678;14.080;2024-02-23T03:34:11;10.10;99.90
6841;DHT22;3458;53.678;14.080;2024-02-23T03:36:38;10.10;99.90
6841;DHT22;3458;53.678;14.080;2024-02-23T03:39:04;10.00;99.90
6841;DHT22;3458;53.678;14.080;2024-02-23T03:41:29;10.00;99.90
6841;DHT22;3458;53.678;14.080;2024-02-23T03:43:55;10.00;99.90
6841;DHT22;3458;53.678;14.080;2024-02-23T03:46:20;9.90;99.90
6841;DHT22;3458;53.678;14.080;2024-02-23T03:48:46;9.90;99.90
6841;DHT22;3458;53.678;14.080;2024-02-23T03:51:12;9.80;99.90
6841;DHT22;3458;53.678;14.080;2024-02-23T03:53:37;9.80;99.90
6841;DHT22;3458;53.678;14.080;2024-02-23T03:56:03;9.80;99.90
6841;DHT22;3458;53.678;14.080;2024-02-23T03:58:28;9.80;99.90
6841;DHT22;3458;53.678;14.080;2024-02-23T04:00:54;9.70;99.90
6841;DHT22;3458;53.678;14.080;2024-02-23T04:03:20;9.70;99.90
6841;DHT22;3458;53.678;14.080;2024-02-23T04:05:45;9.70;99.90
6841;DHT22;3458;53.678;14.080;2024-02-23T04:08:11;9.70;99.90
6841;DHT22;3458;53.678;14.080;2024-02-23T04:10:36;9.70;99.90
6841;DHT22;3458;53.678;14.080;2024-02-23T04:13:02;9.70;99.90
6841;DHT22;3458;53.678;14.080;2024-02-23T04:15:28;9.60;99.90
6841;DHT22;3458;53.678;14.080;2024-02-23T04:17:53;9.50;99.90
6841;DHT22;3458;53.678;14.080;2024-02-23T04:20:19;9.50;99.90
6841;DHT22;3458;53.678;14.080;2024-02-23T04:22:44;9.50;99.90
6841;DHT22;3458;53.678;14.080;2024-02-23T04:25:10;9.50;99.90
6841;DHT22;3458;53.678;14.080;2024-02-23T04:27:35;9.50;99.60
6841;DHT22;3458;53.678;14.080;2024-02-23T04:30:01;9.50;99.90
6841;DHT22;3458;53.678;14.080;2024-02-23T04:32:27;9.40;99.90
6841;DHT22;3458;53.678;14.080;2024-02-23T04:34:53;9.50;99.10
6841;DHT22;3458;53.678;14.080;2024-02-23T04:37:18;9.40;99.30
6841;DHT22;3458;53.678;14.080;2024-02-23T04:39:44;9.30;99.10
6841;DHT22;3458;53.678;14.080;2024-02-23T04:42:10;9.30;98.90
6841;DHT22;3458;53.678;14.080;2024-02-23T04:44:35;9.40;98.60
6841;DHT22;3458;53.678;14.080;2024-02-23T04:47:01;9.40;98.60
6841;DHT22;3458;53.678;14.080;2024-02-23T04:49:27;9.30;98.70
6841;DHT22;3458;53.678;14.080;2024-02-23T04:51:53;9.30;99.10
6841;DHT22;3458;53.678;14.080;2024-02-23T04:54:18;9.30;99.00
6841;DHT22;3458;53.678;14.080;2024-02-23T04:56:44;9.30;99.20
6841;DHT22;3458;53.678;14.080;2024-02-23T04:59:09;9.30;99.40
6841;DHT22;3458;53.678;14.080;2024-02-23T05:01:36;9.30;99.50
6841;DHT22;3458;53.678;14.080;2024-02-23T05:04:02;9.30;99.70
6841;DHT22;3458;53.678;14.080;2024-02-23T05:06:28;9.30;99.50
6841;DHT22;3458;53.678;14.080;2024-02-23T05:08:54;9.30;99.90
6841;DHT22;3458;53.678;14.080;2024-02-23T05:11:20;9.20;99.90
6841;DHT22;3458;53.678;14.080;2024-02-23T05:13:45;9.20;99.90
6841;DHT22;3458;53.678;14.080;2024-02-23T05:16:11;9.20;99.90
6841;DHT22;3458;53.678;14.080;2024-02-23T05:18:38;9.20;99.90
6841;DHT22;3458;53.678;14.080;2024-02-23T05:21:04;9.20;99.90
6841;DHT22;3458;53.678;14.080;2024-02-23T05:23:30;9.30;99.90
6841;DHT22;3458;53.678;14.080;2024-02-23T05:25:55;9.30;99.90
6841;DHT22;3458;53.678;14.080;2024-02-23T05:28:21;9.30;99.90
6841;DHT22;3458;53.678;14.080;2024-02-23T05:30:46;9.30;99.90
6841;DHT22;3458;53.678;14.080;2024-02-23T05:33:12;9.20;99.90
6841;DHT22;3458;53.678;14.080;2024-02-23T05:35:38;9.20;99.90
6841;DHT22;3458;53.678;14.080;2024-02-23T05:38:03;9.20;99.90
6841;DHT22;3458;53.678;14.080;2024-02-23T05:40:31;9.10;99.90
6841;DHT22;3458;53.678;14.080;2024-02-23T05:42:58;9.00;99.90
6841;DHT22;3458;53.678;14.080;2024-02-23T05:45:23;8.90;99.90
6841;DHT22;3458;53.678;14.080;2024-02-23T05:47:49;8.80;99.90
6841;DHT22;3458;53.678;14.080;2024-02-23T05:50:14;8.80;99.90
6841;DHT22;3458;53.678;14.080;2024-02-23T05:52:40;8.80;99.90
6841;DHT22;3458;53.678;14.080;2024-02-23T05:55:06;8.70;99.90
6841;DHT22;3458;53.678;14.080;2024-02-23T05:57:31;8.60;99.90
6841;DHT22;3458;53.678;14.080;2024-02-23T05:59:57;8.50;99.90
6841;DHT22;3458;53.678;14.080;2024-02-23T06:02:22;8.50;99.90
6841;DHT22;3458;53.678;14.080;2024-02-23T06:04:48;8.50;99.90
6841;DHT22;3458;53.678;14.080;2024-02-23T06:07:14;8.50;99.90
6841;DHT22;3458;53.678;14.080;2024-02-23T06:09:43;8.30;99.90
6841;DHT22;3458;53.678;14.080;2024-02-23T06:12:09;8.20;99.90
6841;DHT22;3458;53.678;14.080;2024-02-23T06:14:35;8.20;99.90
6841;DHT22;3458;53.678;14.080;2024-02-23T06:17:01;8.10;99.90
6841;DHT22;3458;53.678;14.080;2024-02-23T06:19:26;8.00;99.90
6841;DHT22;3458;53.678;14.080;2024-02-23T06:21:52;8.10;99.90
6841;DHT22;3458;53.678;14.080;2024-02-23T06:24:17;8.10;99.90
6841;DHT22;3458;53.678;14.080;2024-02-23T06:26:43;8.10;99.90
6841;DHT22;3458;53.678;14.080;2024-02-23T06:29:08;8.10;99.90
6841;DHT22;3458;53.678;14.080;2024-02-23T06:31:37;8.10;99.90
6841;DHT22;3458;53.678;14.080;2024-02-23T06:34:03;8.00;99.90
6841;DHT22;3458;53.678;14.080;2024-02-23T06:36:29;8.00;99.90
6841;DHT22;3458;53.678;14.080;2024-02-23T06:38:54;8.00;99.90
6841;DHT22;3458;53.678;14.080;2024-02-23T06:41:20;8.00;99.90
6841;DHT22;3458;53.678;14.080;2024-02-23T06:43:45;8.00;99.90
6841;DHT22;3458;53.678;14.080;2024-02-23T06:46:11;8.00;99.90
6841;DHT22;3458;53.678;14.080;2024-02-23T06:48:37;8.00;99.90
6841;DHT22;3458;53.678;14.080;2024-02-23T06:51:03;8.10;99.90
6841;DHT22;3458;53.678;14.080;2024-02-23T06:53:29;8.10;99.90
6841;DHT22;3458;53.678;14.080;2024-02-23T06:55:55;8.00;99.90
6841;DHT22;3458;53.678;14.080;2024-02-23T06:58:20;8.00;99.90
6841;DHT22;3458;53.678;14.080;2024-02-23T07:00:46;8.10;99.90
6841;DHT22;3458;53.678;14.080;2024-02-23T07:03:11;8.20;99.90
6841;DHT22;3458;53.678;14.080;2024-02-23T07:05:37;8.30;99.90
6841;DHT22;3458;53.678;14.080;2024-02-23T07:08:03;8.30;99.90
6841;DHT22;3458;53.678;14.080;2024-02-23T07:10:28;8.30;99.90
6841;DHT22;3458;53.678;14.080;2024-02-23T07:12:54;8.30;99.90
6841;DHT22;3458;53.678;14.080;2024-02-23T07:15:21;8.30;99.90
6841;DHT22;3458;53.678;14.080;2024-02-23T07:17:46;8.20;99.90
6841;DHT22;3458;53.678;14.080;2024-02-23T07:20:13;8.20;99.90
6841;DHT22;3458;53.678;14.080;2024-02-23T07:22:38;8.30;99.90
6841;DHT22;3458;53.678;14.080;2024-02-23T07:25:05;8.30;99.90
6841;DHT22;3458;53.678;14.080;2024-02-23T07:27:30;8.30;99.90
6841;DHT22;3458;53.678;14.080;2024-02-23T07:29:56;8.30;99.90
6841;DHT22;3458;53.678;14.080;2024-02-23T07:32:22;8.40;99.90
6841;DHT22;3458;53.678;14.080;2024-02-23T07:34:48;8.50;99.90
6841;DHT22;3458;53.678;14.080;2024-02-23T07:37:13;8.50;99.90
6841;DHT22;3458;53.678;14.080;2024-02-23T07:39:39;8.60;99.90
6841;DHT22;3458;53.678;14.080;2024-02-23T07:42:05;8.60;99.90
6841;DHT22;3458;53.678;14.080;2024-02-23T07:44:32;8.60;99.90
6841;DHT22;3458;53.678;14.080;2024-02-23T07:46:57;8.60;99.90
6841;DHT22;3458;53.678;14.080;2024-02-23T07:49:24;8.80;99.90
6841;DHT22;3458;53.678;14.080;2024-02-23T07:51:50;8.90;99.90
6841;DHT22;3458;53.678;14.080;2024-02-23T07:54:15;8.90;99.90
6841;DHT22;3458;53.678;14.080;2024-02-23T07:56:41;8.90;99.90
6841;DHT22;3458;53.678;14.080;2024-02-23T07:59:07;8.90;99.90
6841;DHT22;3458;53.678;14.080;2024-02-23T08:01:33;9.00;99.90
6841;DHT22;3458;53.678;14.080;2024-02-23T08:03:58;9.10;99.90
6841;DHT22;3458;53.678;14.080;2024-02-23T08:06:24;9.10;99.90
6841;DHT22;3458;53.678;14.080;2024-02-23T08:08:49;9.20;99.90
6841;DHT22;3458;53.678;14.080;2024-02-23T08:11:15;9.10;99.90
6841;DHT22;3458;53.678;14.080;2024-02-23T08:13:40;8.90;99.90
6841;DHT22;3458;53.678;14.080;2024-02-23T08:16:06;8.80;99.90
6841;DHT22;3458;53.678;14.080;2024-02-23T08:18:32;8.70;99.90
6841;DHT22;3458;53.678;14.080;2024-02-23T08:20:58;8.60;99.90
6841;DHT22;3458;53.678;14.080;2024-02-23T08:23:24;8.70;99.90
6841;DHT22;3458;53.678;14.080;2024-02-23T08:25:49;8.70;99.80
6841;DHT22;3458;53.678;14.080;2024-02-23T08:28:16;8.80;99.90
6841;DHT22;3458;53.678;14.080;2024-02-23T08:30:41;8.90;99.50
6841;DHT22;3458;53.678;14.080;2024-02-23T08:33:07;8.90;98.60
6841;DHT22;3458;53.678;14.080;2024-02-23T08:35:35;9.10;98.40
6841;DHT22;3458;53.678;14.080;2024-02-23T08:38:00;9.20;97.60
6841;DHT22;3458;53.678;14.080;2024-02-23T08:40:26;9.30;97.90
6841;DHT22;3458;53.678;14.080;2024-02-23T08:42:51;9.30;97.10
6841;DHT22;3458;53.678;14.080;2024-02-23T08:45:17;9.40;97.40
6841;DHT22;3458;53.678;14.080;2024-02-23T08:47:43;9.50;97.10
6841;DHT22;3458;53.678;14.080;2024-02-23T08:50:09;9.60;96.00
6841;DHT22;3458;53.678;14.080;2024-02-23T08:52:34;9.60;96.10
6841;DHT22;3458;53.678;14.080;2024-02-23T08:55:00;9.70;95.80
6841;DHT22;3458;53.678;14.080;2024-02-23T08:57:27;9.80;95.30
6841;DHT22;3458;53.678;14.080;2024-02-23T08:59:52;9.90;94.50
6841;DHT22;3458;53.678;14.080;2024-02-23T09:02:18;9.90;93.30
6841;DHT22;3458;53.678;14.080;2024-02-23T09:04:45;9.80;93.30
6841;DHT22;3458;53.678;14.080;2024-02-23T09:07:11;9.80;93.10
6841;DHT22;3458;53.678;14.080;2024-02-23T09:09:37;9.90;92.80
6841;DHT22;3458;53.678;14.080;2024-02-23T09:12:02;9.80;92.80
6841;DHT22;3458;53.678;14.080;2024-02-23T09:14:29;9.90;92.00
6841;DHT22;3458;53.678;14.080;2024-02-23T09:16:54;9.90;92.00
6841;DHT22;3458;53.678;14.080;2024-02-23T09:19:20;9.90;91.60
6841;DHT22;3458;53.678;14.080;2024-02-23T09:21:45;9.90;91.20
6841;DHT22;3458;53.678;14.080;2024-02-23T09:24:11;9.90;91.40
6841;DHT22;3458;53.678;14.080;2024-02-23T09:26:37;10.10;90.60
6841;DHT22;3458;53.678;14.080;2024-02-23T09:29:02;10.30;87.70
6841;DHT22;3458;53.678;14.080;2024-02-23T09:31:28;10.20;85.60
6841;DHT22;3458;53.678;14.080;2024-02-23T09:33:55;10.10;87.70
6841;DHT22;3458;53.678;14.080;2024-02-23T09:36:21;10.20;86.80
6841;DHT22;3458;53.678;14.080;2024-02-23T09:38:47;10.40;86.60
6841;DHT22;3458;53.678;14.080;2024-02-23T09:41:20;10.50;86.70
6841;DHT22;3458;53.678;14.080;2024-02-23T09:43:47;10.70;84.00
6841;DHT22;3458;53.678;14.080;2024-02-23T09:46:15;10.80;81.40
6841;DHT22;3458;53.678;14.080;2024-02-23T09:48:45;10.90;79.60
6841;DHT22;3458;53.678;14.080;2024-02-23T09:51:12;10.90;78.60
6841;DHT22;3458;53.678;14.080;2024-02-23T09:53:38;10.90;79.20
6841;DHT22;3458;53.678;14.080;2024-02-23T09:56:05;11.00;78.30
6841;DHT22;3458;53.678;14.080;2024-02-23T09:58:35;11.00;78.50
6841;DHT22;3458;53.678;14.080;2024-02-23T10:01:02;11.00;79.40
6841;DHT22;3458;53.678;14.080;2024-02-23T10:03:28;11.00;77.50
6841;DHT22;3458;53.678;14.080;2024-02-23T10:05:56;11.00;75.30
6841;DHT22;3458;53.678;14.080;2024-02-23T10:08:22;10.80;75.10
6841;DHT22;3458;53.678;14.080;2024-02-23T10:10:47;10.80;76.10
6841;DHT22;3458;53.678;14.080;2024-02-23T10:13:18;10.80;76.30
6841;DHT22;3458;53.678;14.080;2024-02-23T10:15:46;10.90;75.10
6841;DHT22;3458;53.678;14.080;2024-02-23T10:18:12;10.80;75.20
6841;DHT22;3458;53.678;14.080;2024-02-23T10:20:38;10.80;75.50
6841;DHT22;3458;53.678;14.080;2024-02-23T10:23:04;10.80;75.70
6841;DHT22;3458;53.678;14.080;2024-02-23T10:25:30;11.00;75.10
6841;DHT22;3458;53.678;14.080;2024-02-23T10:27:55;11.10;76.20
6841;DHT22;3458;53.678;14.080;2024-02-23T10:30:21;11.30;72.70
6841;DHT22;3458;53.678;14.080;2024-02-23T10:32:46;11.30;70.10
6841;DHT22;3458;53.678;14.080;2024-02-23T10:35:15;11.20;70.80
6841;DHT22;3458;53.678;14.080;2024-02-23T10:37:44;11.20;71.20
6841;DHT22;3458;53.678;14.080;2024-02-23T10:40:12;11.30;72.40
6841;DHT22;3458;53.678;14.080;2024-02-23T10:42:39;11.40;71.20
6841;DHT22;3458;53.678;14.080;2024-02-23T10:45:07;11.50;69.90
6841;DHT22;3458;53.678;14.080;2024-02-23T10:47:33;11.40;69.40
6841;DHT22;3458;53.678;14.080;2024-02-23T10:50:01;11.30;69.30
6841;DHT22;3458;53.678;14.080;2024-02-23T10:52:28;11.30;70.00
6841;DHT22;3458;53.678;14.080;2024-02-23T10:54:55;11.40;70.20
6841;DHT22;3458;53.678;14.080;2024-02-23T10:57:21;11.60;69.40
6841;DHT22;3458;53.678;14.080;2024-02-23T10:59:47;11.70;67.10
6841;DHT22;3458;53.678;14.080;2024-02-23T11:02:18;11.80;67.90
6841;DHT22;3458;53.678;14.080;2024-02-23T11:04:47;11.80;67.60
6841;DHT22;3458;53.678;14.080;2024-02-23T11:07:16;11.80;65.90
6841;DHT22;3458;53.678;14.080;2024-02-23T11:09:49;11.60;65.80
6841;DHT22;3458;53.678;14.080;2024-02-23T11:12:22;11.30;67.00
6841;DHT22;3458;53.678;14.080;2024-02-23T11:14:49;11.30;67.70
6841;DHT22;3458;53.678;14.080;2024-02-23T11:17:19;11.40;67.30
6841;DHT22;3458;53.678;14.080;2024-02-23T11:19:46;11.50;65.50
6841;DHT22;3458;53.678;14.080;2024-02-23T11:22:14;11.60;65.60
6841;DHT22;3458;53.678;14.080;2024-02-23T11:24:43;11.80;65.50
6841;DHT22;3458;53.678;14.080;2024-02-23T11:27:15;11.90;65.50
6841;DHT22;3458;53.678;14.080;2024-02-23T11:29:45;12.10;65.00
6841;DHT22;3458;53.678;14.080;2024-02-23T11:32:14;12.30;64.80
6841;DHT22;3458;53.678;14.080;2024-02-23T11:34:40;12.30;62.50
6841;DHT22;3458;53.678;14.080;2024-02-23T11:37:11;12.30;62.70
6841;DHT22;3458;53.678;14.080;2024-02-23T11:39:38;12.30;63.90
6841;DHT22;3458;53.678;14.080;2024-02-23T11:42:05;12.40;63.10
6841;DHT22;3458;53.678;14.080;2024-02-23T11:44:31;12.30;61.00
6841;DHT22;3458;53.678;14.080;2024-02-23T11:46:58;12.20;61.00
6841;DHT22;3458;53.678;14.080;2024-02-23T11:49:30;12.20;60.90
6841;DHT22;3458;53.678;14.080;2024-02-23T11:51:57;12.30;61.80
6841;DHT22;3458;53.678;14.080;2024-02-23T11:54:22;12.40;61.10
6841;DHT22;3458;53.678;14.080;2024-02-23T11:56:49;12.20;60.10
6841;DHT22;3458;53.678;14.080;2024-02-23T11:59:15;12.00;60.10
6841;DHT22;3458;53.678;14.080;2024-02-23T12:01:41;11.80;60.50
6841;DHT22;3458;53.678;14.080;2024-02-23T12:04:07;11.70;61.60
6841;DHT22;3458;53.678;14.080;2024-02-23T12:06:33;11.70;62.00
6841;DHT22;3458;53.678;14.080;2024-02-23T12:09:00;11.70;62.10
6841;DHT22;3458;53.678;14.080;2024-02-23T12:11:26;11.60;63.20
6841;DHT22;3458;53.678;14.080;2024-02-23T12:13:53;11.80;63.40
6841;DHT22;3458;53.678;14.080;2024-02-23T12:16:20;11.70;63.20
6841;DHT22;3458;53.678;14.080;2024-02-23T12:18:53;11.60;63.80
6841;DHT22;3458;53.678;14.080;2024-02-23T12:21:19;11.60;62.70
6841;DHT22;3458;53.678;14.080;2024-02-23T12:23:45;11.60;63.00
6841;DHT22;3458;53.678;14.080;2024-02-23T12:26:15;11.50;63.50
6841;DHT22;3458;53.678;14.080;2024-02-23T12:28:41;11.50;63.80
6841;DHT22;3458;53.678;14.080;2024-02-23T12:31:07;11.60;65.00
6841;DHT22;3458;53.678;14.080;2024-02-23T12:33:34;11.60;65.10
6841;DHT22;3458;53.678;14.080;2024-02-23T12:36:01;11.60;66.50
6841;DHT22;3458;53.678;14.080;2024-02-23T12:38:27;11.70;66.20
6841;DHT22;3458;53.678;14.080;2024-02-23T12:40:53;11.70;65.00
6841;DHT22;3458;53.678;14.080;2024-02-23T12:43:19;11.50;64.50
6841;DHT22;3458;53.678;14.080;2024-02-23T12:45:52;11.40;64.60
6841;DHT22;3458;53.678;14.080;2024-02-23T12:48:18;11.30;65.70
6841;DHT22;3458;53.678;14.080;2024-02-23T12:50:45;11.40;65.90
6841;DHT22;3458;53.678;14.080;2024-02-23T12:53:36;11.40;66.30
6841;DHT22;3458;53.678;14.080;2024-02-23T12:56:03;11.50;64.90
6841;DHT22;3458;53.678;14.080;2024-02-23T12:58:33;11.60;63.40
6841;DHT22;3458;53.678;14.080;2024-02-23T13:00:59;11.50;62.90
6841;DHT22;3458;53.678;14.080;2024-02-23T13:03:25;11.40;62.50
6841;DHT22;3458;53.678;14.080;2024-02-23T13:05:55;11.40;63.10
6841;DHT22;3458;53.678;14.080;2024-02-23T13:08:22;11.40;62.80
6841;DHT22;3458;53.678;14.080;2024-02-23T13:10:49;11.50;63.20
6841;DHT22;3458;53.678;14.080;2024-02-23T13:13:18;11.60;62.60
6841;DHT22;3458;53.678;14.080;2024-02-23T13:15:45;11.50;61.90
6841;DHT22;3458;53.678;14.080;2024-02-23T13:18:10;11.50;62.30
6841;DHT22;3458;53.678;14.080;2024-02-23T13:20:37;11.60;61.90
6841;DHT22;3458;53.678;14.080;2024-02-23T13:23:04;11.50;61.50
6841;DHT22;3458;53.678;14.080;2024-02-23T13:25:29;11.40;62.10
6841;DHT22;3458;53.678;14.080;2024-02-23T13:27:55;11.40;62.80
6841;DHT22;3458;53.678;14.080;2024-02-23T13:30:20;11.40;63.40
6841;DHT22;3458;53.678;14.080;2024-02-23T13:32:46;11.50;62.60
6841;DHT22;3458;53.678;14.080;2024-02-23T13:35:11;11.70;63.10
6841;DHT22;3458;53.678;14.080;2024-02-23T13:37:39;11.80;63.10
6841;DHT22;3458;53.678;14.080;2024-02-23T13:40:05;11.90;61.60
6841;DHT22;3458;53.678;14.080;2024-02-23T13:42:34;11.80;61.80
6841;DHT22;3458;53.678;14.080;2024-02-23T13:44:59;11.80;60.70
6841;DHT22;3458;53.678;14.080;2024-02-23T13:47:25;11.80;62.10
6841;DHT22;3458;53.678;14.080;2024-02-23T13:49:50;11.70;61.10
6841;DHT22;3458;53.678;14.080;2024-02-23T13:52:16;11.60;61.60
6841;DHT22;3458;53.678;14.080;2024-02-23T13:54:41;11.60;61.10
6841;DHT22;3458;53.678;14.080;2024-02-23T13:57:08;11.60;62.00
6841;DHT22;3458;53.678;14.080;2024-02-23T13:59:33;11.60;61.40
6841;DHT22;3458;53.678;14.080;2024-02-23T14:01:59;11.60;61.70
6841;DHT22;3458;53.678;14.080;2024-02-23T14:04:25;11.70;62.30
6841;DHT22;3458;53.678;14.080;2024-02-23T14:06:51;11.80;62.00
6841;DHT22;3458;53.678;14.080;2024-02-23T14:09:17;11.90;61.10
6841;DHT22;3458;53.678;14.080;2024-02-23T14:11:42;12.00;60.00
6841;DHT22;3458;53.678;14.080;2024-02-23T14:14:08;12.00;59.90
6841;DHT22;3458;53.678;14.080;2024-02-23T14:16:33;12.00;59.30
6841;DHT22;3458;53.678;14.080;2024-02-23T14:19:00;11.80;59.20
6841;DHT22;3458;53.678;14.080;2024-02-23T14:21:25;11.80;59.90
6841;DHT22;3458;53.678;14.080;2024-02-23T14:23:51;12.00;59.90
6841;DHT22;3458;53.678;14.080;2024-02-23T14:26:17;12.00;60.00
6841;DHT22;3458;53.678;14.080;2024-02-23T14:28:42;12.00;60.70
6841;DHT22;3458;53.678;14.080;2024-02-23T14:31:08;12.10;59.80
6841;DHT22;3458;53.678;14.080;2024-02-23T14:33:34;11.90;59.80
6841;DHT22;3458;53.678;14.080;2024-02-23T14:35:59;11.90;60.30
6841;DHT22;3458;53.678;14.080;2024-02-23T14:38:25;11.90;61.20
6841;DHT22;3458;53.678;14.080;2024-02-23T14:40:50;11.90;60.10
6841;DHT22;3458;53.678;14.080;2024-02-23T14:43:16;11.90;60.20
6841;DHT22;3458;53.678;14.080;2024-02-23T14:45:42;11.90;60.30
6841;DHT22;3458;53.678;14.080;2024-02-23T14:48:07;11.80;60.20
6841;DHT22;3458;53.678;14.080;2024-02-23T14:50:33;11.70;60.70
6841;DHT22;3458;53.678;14.080;2024-02-23T14:52:59;11.70;61.30
6841;DHT22;3458;53.678;14.080;2024-02-23T14:55:25;11.60;61.70
6841;DHT22;3458;53.678;14.080;2024-02-23T14:57:50;11.60;61.10
6841;DHT22;3458;53.678;14.080;2024-02-23T15:00:16;11.50;62.20
6841;DHT22;3458;53.678;14.080;2024-02-23T15:02:42;11.50;62.00
6841;DHT22;3458;53.678;14.080;2024-02-23T15:05:08;11.40;62.10
6841;DHT22;3458;53.678;14.080;2024-02-23T15:07:34;11.30;62.50
6841;DHT22;3458;53.678;14.080;2024-02-23T15:10:01;11.20;62.60
6841;DHT22;3458;53.678;14.080;2024-02-23T15:12:31;11.20;63.00
6841;DHT22;3458;53.678;14.080;2024-02-23T15:14:56;11.10;63.10
6841;DHT22;3458;53.678;14.080;2024-02-23T15:17:22;11.00;63.40
6841;DHT22;3458;53.678;14.080;2024-02-23T15:19:47;11.00;64.10
6841;DHT22;3458;53.678;14.080;2024-02-23T15:22:12;11.00;64.30
6841;DHT22;3458;53.678;14.080;2024-02-23T15:24:40;10.90;65.30
6841;DHT22;3458;53.678;14.080;2024-02-23T15:27:08;10.80;65.00
6841;DHT22;3458;53.678;14.080;2024-02-23T15:29:34;10.70;66.00
6841;DHT22;3458;53.678;14.080;2024-02-23T15:32:00;10.70;65.60
6841;DHT22;3458;53.678;14.080;2024-02-23T15:34:26;10.70;66.30
6841;DHT22;3458;53.678;14.080;2024-02-23T15:36:52;10.70;66.50
6841;DHT22;3458;53.678;14.080;2024-02-23T15:39:17;10.70;66.50
6841;DHT22;3458;53.678;14.080;2024-02-23T15:41:43;10.60;67.00
6841;DHT22;3458;53.678;14.080;2024-02-23T15:44:08;10.60;67.60